Terminal Aerodrome Forecast
Issued by NWS Mt. Holly, NJ

Home | Current Version | Previous Version | Text Only | Print | Product List | Glossary On
Versions: 1 2 3 4 5 6 7 8 9 10 11 12 13 14 15 16 17 18 19 20 21 22 23 24 25 26 27 28 29 30 31 32 33 34
000
FTUS41 KPHI 031124
TAFACY
TAF
KACY 031124Z 0312/0412 00000KT 4SM BR SCT250
     FM031300 05004KT P6SM SCT050 BKN250
     FM031800 13006KT P6SM BKN050
     FM040900 10004KT 5SM BR SCT025 OVC100=

USA.gov is the U.S. government's official web portal to all federal, state and local government web resources and services.